sensor_id;sensor_type;location;lat;lon;timestamp;P1;durP1;ratioP1;P2;durP2;ratioP2
8871;SDS011;4472;52.092;9.820;2022-09-25T00:01:04;24.07;;;19.20;;
8871;SDS011;4472;52.092;9.820;2022-09-25T00:03:52;23.03;;;19.03;;
8871;SDS011;4472;52.092;9.820;2022-09-25T00:06:39;23.60;;;19.37;;
8871;SDS011;4472;52.092;9.820;2022-09-25T00:09:26;26.63;;;19.90;;
8871;SDS011;4472;52.092;9.820;2022-09-25T00:12:13;24.77;;;19.63;;
8871;SDS011;4472;52.092;9.820;2022-09-25T00:15:02;28.63;;;21.37;;
8871;SDS011;4472;52.092;9.820;2022-09-25T00:17:50;26.83;;;21.20;;
8871;SDS011;4472;52.092;9.820;2022-09-25T00:20:37;30.03;;;22.23;;
8871;SDS011;4472;52.092;9.820;2022-09-25T00:23:26;29.70;;;21.33;;
8871;SDS011;4472;52.092;9.820;2022-09-25T00:26:14;31.10;;;22.20;;
8871;SDS011;4472;52.092;9.820;2022-09-25T00:29:03;29.90;;;22.30;;
8871;SDS011;4472;52.092;9.820;2022-09-25T00:31:53;31.87;;;22.80;;
8871;SDS011;4472;52.092;9.820;2022-09-25T00:34:40;29.13;;;21.73;;
8871;SDS011;4472;52.092;9.820;2022-09-25T00:37:27;30.27;;;22.80;;
8871;SDS011;4472;52.092;9.820;2022-09-25T00:40:14;33.20;;;23.77;;
8871;SDS011;4472;52.092;9.820;2022-09-25T00:43:02;33.80;;;22.90;;
8871;SDS011;4472;52.092;9.820;2022-09-25T00:45:51;31.87;;;23.93;;
8871;SDS011;4472;52.092;9.820;2022-09-25T00:48:41;33.53;;;23.33;;
8871;SDS011;4472;52.092;9.820;2022-09-25T00:51:37;28.27;;;22.10;;
8871;SDS011;4472;52.092;9.820;2022-09-25T00:54:30;30.20;;;22.23;;
8871;SDS011;4472;52.092;9.820;2022-09-25T00:57:20;25.53;;;19.90;;
8871;SDS011;4472;52.092;9.820;2022-09-25T01:00:11;22.63;;;17.13;;
8871;SDS011;4472;52.092;9.820;2022-09-25T01:02:59;22.63;;;17.40;;
8871;SDS011;4472;52.092;9.820;2022-09-25T01:05:50;23.27;;;17.50;;
8871;SDS011;4472;52.092;9.820;2022-09-25T01:08:38;21.77;;;17.13;;
8871;SDS011;4472;52.092;9.820;2022-09-25T01:11:27;24.20;;;17.97;;
8871;SDS011;4472;52.092;9.820;2022-09-25T01:14:15;23.73;;;16.73;;
8871;SDS011;4472;52.092;9.820;2022-09-25T01:17:05;22.50;;;16.97;;
8871;SDS011;4472;52.092;9.820;2022-09-25T01:20:00;21.40;;;16.00;;
8871;SDS011;4472;52.092;9.820;2022-09-25T01:23:00;20.17;;;14.50;;
8871;SDS011;4472;52.092;9.820;2022-09-25T01:26:06;20.07;;;15.17;;
8871;SDS011;4472;52.092;9.820;2022-09-25T01:29:08;19.17;;;14.27;;
8871;SDS011;4472;52.092;9.820;2022-09-25T01:31:58;18.63;;;15.10;;
8871;SDS011;4472;52.092;9.820;2022-09-25T01:34:50;20.13;;;15.67;;
8871;SDS011;4472;52.092;9.820;2022-09-25T01:37:45;21.27;;;14.80;;
8871;SDS011;4472;52.092;9.820;2022-09-25T01:40:41;20.07;;;14.87;;
8871;SDS011;4472;52.092;9.820;2022-09-25T01:43:34;19.03;;;14.97;;
8871;SDS011;4472;52.092;9.820;2022-09-25T01:46:26;23.70;;;16.83;;
8871;SDS011;4472;52.092;9.820;2022-09-25T01:49:17;23.10;;;17.40;;
8871;SDS011;4472;52.092;9.820;2022-09-25T01:52:11;21.93;;;17.03;;
8871;SDS011;4472;52.092;9.820;2022-09-25T01:55:03;26.50;;;18.17;;
8871;SDS011;4472;52.092;9.820;2022-09-25T01:57:54;24.23;;;18.13;;
8871;SDS011;4472;52.092;9.820;2022-09-25T02:00:48;24.83;;;17.17;;
8871;SDS011;4472;52.092;9.820;2022-09-25T02:03:41;22.37;;;17.07;;
8871;SDS011;4472;52.092;9.820;2022-09-25T02:06:33;23.73;;;17.07;;
8871;SDS011;4472;52.092;9.820;2022-09-25T02:09:24;23.00;;;16.97;;
8871;SDS011;4472;52.092;9.820;2022-09-25T02:12:18;25.97;;;17.07;;
8871;SDS011;4472;52.092;9.820;2022-09-25T02:15:10;23.60;;;16.57;;
8871;SDS011;4472;52.092;9.820;2022-09-25T02:18:01;24.43;;;16.80;;
8871;SDS011;4472;52.092;9.820;2022-09-25T02:21:11;25.83;;;18.33;;
8871;SDS011;4472;52.092;9.820;2022-09-25T02:24:03;25.73;;;17.93;;
8871;SDS011;4472;52.092;9.820;2022-09-25T02:26:56;20.73;;;16.40;;
8871;SDS011;4472;52.092;9.820;2022-09-25T02:29:44;22.20;;;16.83;;
8871;SDS011;4472;52.092;9.820;2022-09-25T02:32:31;24.53;;;16.40;;
8871;SDS011;4472;52.092;9.820;2022-09-25T02:35:18;20.80;;;16.70;;
8871;SDS011;4472;52.092;9.820;2022-09-25T02:38:07;26.43;;;17.10;;
8871;SDS011;4472;52.092;9.820;2022-09-25T02:40:55;25.47;;;17.80;;
8871;SDS011;4472;52.092;9.820;2022-09-25T02:43:51;28.83;;;17.73;;
8871;SDS011;4472;52.092;9.820;2022-09-25T02:46:46;24.50;;;17.53;;
8871;SDS011;4472;52.092;9.820;2022-09-25T02:49:47;26.90;;;17.67;;
8871;SDS011;4472;52.092;9.820;2022-09-25T02:52:41;27.37;;;17.47;;
8871;SDS011;4472;52.092;9.820;2022-09-25T02:55:35;25.20;;;19.13;;
8871;SDS011;4472;52.092;9.820;2022-09-25T02:58:26;29.83;;;20.83;;
8871;SDS011;4472;52.092;9.820;2022-09-25T03:01:17;29.77;;;19.87;;
8871;SDS011;4472;52.092;9.820;2022-09-25T03:04:07;30.30;;;19.97;;
8871;SDS011;4472;52.092;9.820;2022-09-25T03:06:56;30.30;;;20.03;;
8871;SDS011;4472;52.092;9.820;2022-09-25T03:09:44;31.63;;;20.43;;
8871;SDS011;4472;52.092;9.820;2022-09-25T03:12:36;27.27;;;19.57;;
8871;SDS011;4472;52.092;9.820;2022-09-25T03:15:23;36.23;;;21.10;;
8871;SDS011;4472;52.092;9.820;2022-09-25T03:21:52;25.80;;;19.60;;
8871;SDS011;4472;52.092;9.820;2022-09-25T03:24:39;31.83;;;20.97;;
8871;SDS011;4472;52.092;9.820;2022-09-25T03:27:26;26.60;;;19.73;;
8871;SDS011;4472;52.092;9.820;2022-09-25T03:30:15;25.80;;;19.30;;
8871;SDS011;4472;52.092;9.820;2022-09-25T03:33:02;27.23;;;19.00;;
8871;SDS011;4472;52.092;9.820;2022-09-25T03:35:58;27.40;;;19.73;;
8871;SDS011;4472;52.092;9.820;2022-09-25T03:38:47;25.70;;;18.47;;
8871;SDS011;4472;52.092;9.820;2022-09-25T03:41:36;29.23;;;19.03;;
8871;SDS011;4472;52.092;9.820;2022-09-25T03:44:23;25.13;;;19.77;;
8871;SDS011;4472;52.092;9.820;2022-09-25T03:47:11;27.10;;;19.70;;
8871;SDS011;4472;52.092;9.820;2022-09-25T03:49:58;26.40;;;19.53;;
8871;SDS011;4472;52.092;9.820;2022-09-25T03:52:46;27.43;;;19.43;;
8871;SDS011;4472;52.092;9.820;2022-09-25T03:55:33;28.37;;;19.00;;
8871;SDS011;4472;52.092;9.820;2022-09-25T03:58:20;25.90;;;18.57;;
8871;SDS011;4472;52.092;9.820;2022-09-25T04:01:07;27.87;;;19.30;;
8871;SDS011;4472;52.092;9.820;2022-09-25T04:03:56;24.90;;;19.53;;
8871;SDS011;4472;52.092;9.820;2022-09-25T04:06:47;26.83;;;20.33;;
8871;SDS011;4472;52.092;9.820;2022-09-25T04:09:34;27.00;;;20.63;;
8871;SDS011;4472;52.092;9.820;2022-09-25T04:12:21;28.83;;;21.50;;
8871;SDS011;4472;52.092;9.820;2022-09-25T04:15:09;28.37;;;20.17;;
8871;SDS011;4472;52.092;9.820;2022-09-25T04:17:56;33.73;;;22.13;;
8871;SDS011;4472;52.092;9.820;2022-09-25T04:20:45;29.50;;;21.53;;
8871;SDS011;4472;52.092;9.820;2022-09-25T04:23:32;32.10;;;21.57;;
8871;SDS011;4472;52.092;9.820;2022-09-25T04:26:19;31.70;;;21.37;;
8871;SDS011;4472;52.092;9.820;2022-09-25T04:29:07;31.53;;;21.63;;
8871;SDS011;4472;52.092;9.820;2022-09-25T04:31:54;30.93;;;22.13;;
8871;SDS011;4472;52.092;9.820;2022-09-25T04:34:58;32.90;;;22.20;;
8871;SDS011;4472;52.092;9.820;2022-09-25T04:37:47;36.33;;;22.80;;
8871;SDS011;4472;52.092;9.820;2022-09-25T04:40:34;36.00;;;22.70;;
8871;SDS011;4472;52.092;9.820;2022-09-25T04:43:22;34.90;;;23.63;;
8871;SDS011;4472;52.092;9.820;2022-09-25T04:46:10;28.47;;;22.93;;
8871;SDS011;4472;52.092;9.820;2022-09-25T04:48:58;34.57;;;23.17;;
8871;SDS011;4472;52.092;9.820;2022-09-25T04:51:45;31.63;;;23.13;;
8871;SDS011;4472;52.092;9.820;2022-09-25T04:54:34;29.17;;;22.57;;
8871;SDS011;4472;52.092;9.820;2022-09-25T04:57:21;32.83;;;23.00;;
8871;SDS011;4472;52.092;9.820;2022-09-25T05:00:08;32.53;;;22.80;;
8871;SDS011;4472;52.092;9.820;2022-09-25T05:03:03;32.93;;;23.43;;
8871;SDS011;4472;52.092;9.820;2022-09-25T05:05:50;36.97;;;23.40;;
8871;SDS011;4472;52.092;9.820;2022-09-25T05:08:38;35.57;;;23.13;;
8871;SDS011;4472;52.092;9.820;2022-09-25T05:11:26;31.50;;;22.63;;
8871;SDS011;4472;52.092;9.820;2022-09-25T05:14:13;34.37;;;22.40;;
8871;SDS011;4472;52.092;9.820;2022-09-25T05:17:01;30.27;;;22.13;;
8871;SDS011;4472;52.092;9.820;2022-09-25T05:19:48;33.43;;;21.53;;
8871;SDS011;4472;52.092;9.820;2022-09-25T05:22:35;38.17;;;22.87;;
8871;SDS011;4472;52.092;9.820;2022-09-25T05:25:22;35.43;;;22.77;;
8871;SDS011;4472;52.092;9.820;2022-09-25T05:28:11;33.47;;;21.47;;
8871;SDS011;4472;52.092;9.820;2022-09-25T05:30:59;31.53;;;22.23;;
8871;SDS011;4472;52.092;9.820;2022-09-25T05:33:47;31.40;;;20.90;;
8871;SDS011;4472;52.092;9.820;2022-09-25T05:36:35;30.27;;;20.27;;
8871;SDS011;4472;52.092;9.820;2022-09-25T05:39:22;30.67;;;21.60;;
8871;SDS011;4472;52.092;9.820;2022-09-25T05:42:10;26.27;;;20.63;;
8871;SDS011;4472;52.092;9.820;2022-09-25T05:44:58;30.77;;;21.60;;
8871;SDS011;4472;52.092;9.820;2022-09-25T05:47:45;31.70;;;21.00;;
8871;SDS011;4472;52.092;9.820;2022-09-25T05:50:33;31.00;;;21.10;;
8871;SDS011;4472;52.092;9.820;2022-09-25T05:53:21;28.83;;;20.60;;
8871;SDS011;4472;52.092;9.820;2022-09-25T05:56:08;31.63;;;20.20;;
8871;SDS011;4472;52.092;9.820;2022-09-25T05:58:55;28.47;;;21.03;;
8871;SDS011;4472;52.092;9.820;2022-09-25T06:01:44;34.10;;;21.50;;
8871;SDS011;4472;52.092;9.820;2022-09-25T06:04:31;28.37;;;19.97;;
8871;SDS011;4472;52.092;9.820;2022-09-25T06:07:19;29.00;;;19.47;;
8871;SDS011;4472;52.092;9.820;2022-09-25T06:10:06;25.93;;;18.93;;
8871;SDS011;4472;52.092;9.820;2022-09-25T06:12:55;24.43;;;18.60;;
8871;SDS011;4472;52.092;9.820;2022-09-25T06:15:44;29.00;;;18.43;;
8871;SDS011;4472;52.092;9.820;2022-09-25T06:18:34;26.53;;;16.57;;
8871;SDS011;4472;52.092;9.820;2022-09-25T06:21:22;21.93;;;16.37;;
8871;SDS011;4472;52.092;9.820;2022-09-25T06:24:10;26.90;;;14.03;;
8871;SDS011;4472;52.092;9.820;2022-09-25T06:26:57;19.97;;;13.27;;
8871;SDS011;4472;52.092;9.820;2022-09-25T06:29:44;21.33;;;13.87;;
8871;SDS011;4472;52.092;9.820;2022-09-25T06:32:31;22.93;;;15.00;;
8871;SDS011;4472;52.092;9.820;2022-09-25T06:35:20;22.90;;;15.53;;
8871;SDS011;4472;52.092;9.820;2022-09-25T06:38:07;22.07;;;16.13;;
8871;SDS011;4472;52.092;9.820;2022-09-25T06:40:54;22.87;;;14.77;;
8871;SDS011;4472;52.092;9.820;2022-09-25T06:43:43;19.83;;;14.07;;
8871;SDS011;4472;52.092;9.820;2022-09-25T06:46:34;19.27;;;12.57;;
8871;SDS011;4472;52.092;9.820;2022-09-25T06:49:21;18.47;;;12.60;;
8871;SDS011;4472;52.092;9.820;2022-09-25T06:52:10;16.53;;;10.90;;
8871;SDS011;4472;52.092;9.820;2022-09-25T06:54:57;16.37;;;11.10;;
8871;SDS011;4472;52.092;9.820;2022-09-25T06:57:45;16.73;;;11.70;;
8871;SDS011;4472;52.092;9.820;2022-09-25T07:00:32;20.57;;;11.47;;
8871;SDS011;4472;52.092;9.820;2022-09-25T07:03:20;18.03;;;11.37;;
8871;SDS011;4472;52.092;9.820;2022-09-25T07:06:26;15.30;;;9.20;;
8871;SDS011;4472;52.092;9.820;2022-09-25T07:09:17;16.43;;;10.57;;
8871;SDS011;4472;52.092;9.820;2022-09-25T07:12:04;16.30;;;10.13;;
8871;SDS011;4472;52.092;9.820;2022-09-25T07:14:51;16.90;;;10.20;;
8871;SDS011;4472;52.092;9.820;2022-09-25T07:17:40;19.13;;;10.17;;
8871;SDS011;4472;52.092;9.820;2022-09-25T07:20:27;15.53;;;10.07;;
8871;SDS011;4472;52.092;9.820;2022-09-25T07:23:17;12.70;;;8.37;;
8871;SDS011;4472;52.092;9.820;2022-09-25T07:26:07;13.60;;;8.77;;
8871;SDS011;4472;52.092;9.820;2022-09-25T07:28:57;18.17;;;9.17;;
8871;SDS011;4472;52.092;9.820;2022-09-25T07:31:45;13.23;;;9.20;;
8871;SDS011;4472;52.092;9.820;2022-09-25T07:34:33;15.63;;;9.10;;
8871;SDS011;4472;52.092;9.820;2022-09-25T07:37:22;18.07;;;9.33;;
8871;SDS011;4472;52.092;9.820;2022-09-25T07:40:09;16.90;;;8.83;;
8871;SDS011;4472;52.092;9.820;2022-09-25T07:42:59;14.67;;;8.80;;
8871;SDS011;4472;52.092;9.820;2022-09-25T07:45:48;11.93;;;9.27;;
8871;SDS011;4472;52.092;9.820;2022-09-25T07:48:38;17.37;;;9.77;;
8871;SDS011;4472;52.092;9.820;2022-09-25T07:51:25;15.20;;;9.57;;
8871;SDS011;4472;52.092;9.820;2022-09-25T07:54:12;17.83;;;10.13;;
8871;SDS011;4472;52.092;9.820;2022-09-25T07:56:59;15.73;;;9.87;;
8871;SDS011;4472;52.092;9.820;2022-09-25T07:59:48;15.50;;;10.17;;
8871;SDS011;4472;52.092;9.820;2022-09-25T08:02:35;23.23;;;11.90;;
8871;SDS011;4472;52.092;9.820;2022-09-25T08:05:22;21.93;;;11.40;;
8871;SDS011;4472;52.092;9.820;2022-09-25T08:08:09;15.97;;;11.23;;
8871;SDS011;4472;52.092;9.820;2022-09-25T08:10:58;16.53;;;10.63;;
8871;SDS011;4472;52.092;9.820;2022-09-25T08:13:47;18.00;;;11.63;;
8871;SDS011;4472;52.092;9.820;2022-09-25T08:16:35;19.43;;;11.50;;
8871;SDS011;4472;52.092;9.820;2022-09-25T08:19:22;18.63;;;11.07;;
8871;SDS011;4472;52.092;9.820;2022-09-25T08:22:11;18.47;;;9.80;;
8871;SDS011;4472;52.092;9.820;2022-09-25T08:24:58;14.73;;;10.23;;
8871;SDS011;4472;52.092;9.820;2022-09-25T08:27:46;19.47;;;10.87;;
8871;SDS011;4472;52.092;9.820;2022-09-25T08:30:33;14.90;;;10.17;;
8871;SDS011;4472;52.092;9.820;2022-09-25T08:33:23;14.03;;;9.90;;
8871;SDS011;4472;52.092;9.820;2022-09-25T08:36:11;16.03;;;9.47;;
8871;SDS011;4472;52.092;9.820;2022-09-25T08:38:58;15.40;;;9.13;;
8871;SDS011;4472;52.092;9.820;2022-09-25T08:41:46;14.27;;;9.27;;
8871;SDS011;4472;52.092;9.820;2022-09-25T08:44:36;17.93;;;8.27;;
8871;SDS011;4472;52.092;9.820;2022-09-25T08:47:25;17.43;;;9.00;;
8871;SDS011;4472;52.092;9.820;2022-09-25T08:50:32;11.60;;;8.20;;
8871;SDS011;4472;52.092;9.820;2022-09-25T08:53:22;12.43;;;7.40;;
8871;SDS011;4472;52.092;9.820;2022-09-25T08:56:11;12.90;;;8.37;;
8871;SDS011;4472;52.092;9.820;2022-09-25T08:59:07;16.97;;;8.33;;
8871;SDS011;4472;52.092;9.820;2022-09-25T09:02:09;11.93;;;8.00;;
8871;SDS011;4472;52.092;9.820;2022-09-25T09:05:00;11.87;;;8.07;;
8871;SDS011;4472;52.092;9.820;2022-09-25T09:07:51;12.53;;;7.87;;
8871;SDS011;4472;52.092;9.820;2022-09-25T09:10:42;13.77;;;7.63;;
8871;SDS011;4472;52.092;9.820;2022-09-25T09:13:33;13.47;;;7.30;;
8871;SDS011;4472;52.092;9.820;2022-09-25T09:16:33;13.33;;;7.20;;
8871;SDS011;4472;52.092;9.820;2022-09-25T09:19:24;14.30;;;7.57;;
8871;SDS011;4472;52.092;9.820;2022-09-25T09:22:13;13.17;;;7.63;;
8871;SDS011;4472;52.092;9.820;2022-09-25T09:25:04;13.27;;;8.03;;
8871;SDS011;4472;52.092;9.820;2022-09-25T09:28:19;11.17;;;8.63;;
8871;SDS011;4472;52.092;9.820;2022-09-25T09:31:18;16.00;;;8.47;;
8871;SDS011;4472;52.092;9.820;2022-09-25T09:34:21;15.57;;;8.13;;
8871;SDS011;4472;52.092;9.820;2022-09-25T09:37:30;15.27;;;8.40;;
8871;SDS011;4472;52.092;9.820;2022-09-25T09:40:34;16.47;;;8.20;;
8871;SDS011;4472;52.092;9.820;2022-09-25T09:43:37;12.73;;;8.73;;
8871;SDS011;4472;52.092;9.820;2022-09-25T09:46:37;16.23;;;9.20;;
8871;SDS011;4472;52.092;9.820;2022-09-25T09:49:33;15.40;;;9.33;;
8871;SDS011;4472;52.092;9.820;2022-09-25T09:52:27;14.63;;;9.07;;
8871;SDS011;4472;52.092;9.820;2022-09-25T09:55:19;12.97;;;8.23;;
8871;SDS011;4472;52.092;9.820;2022-09-25T09:58:12;14.03;;;7.70;;
8871;SDS011;4472;52.092;9.820;2022-09-25T10:01:07;9.57;;;5.80;;
8871;SDS011;4472;52.092;9.820;2022-09-25T10:03:57;8.77;;;5.43;;
8871;SDS011;4472;52.092;9.820;2022-09-25T10:06:50;10.40;;;4.27;;
8871;SDS011;4472;52.092;9.820;2022-09-25T10:09:40;8.30;;;4.47;;
8871;SDS011;4472;52.092;9.820;2022-09-25T10:12:29;7.63;;;4.60;;
8871;SDS011;4472;52.092;9.820;2022-09-25T10:15:25;5.90;;;4.17;;
8871;SDS011;4472;52.092;9.820;2022-09-25T10:18:15;7.10;;;4.53;;
8871;SDS011;4472;52.092;9.820;2022-09-25T10:21:04;6.17;;;4.43;;
8871;SDS011;4472;52.092;9.820;2022-09-25T10:23:57;8.90;;;4.10;;
8871;SDS011;4472;52.092;9.820;2022-09-25T10:26:47;4.27;;;3.70;;
8871;SDS011;4472;52.092;9.820;2022-09-25T10:29:34;5.67;;;4.17;;
8871;SDS011;4472;52.092;9.820;2022-09-25T10:32:23;8.20;;;3.70;;
8871;SDS011;4472;52.092;9.820;2022-09-25T10:35:14;9.07;;;3.83;;
8871;SDS011;4472;52.092;9.820;2022-09-25T10:38:03;7.90;;;4.20;;
8871;SDS011;4472;52.092;9.820;2022-09-25T10:40:55;9.03;;;4.47;;
8871;SDS011;4472;52.092;9.820;2022-09-25T10:43:49;6.97;;;4.47;;
8871;SDS011;4472;52.092;9.820;2022-09-25T10:46:38;4.20;;;3.80;;
8871;SDS011;4472;52.092;9.820;2022-09-25T10:49:46;6.13;;;4.00;;
8871;SDS011;4472;52.092;9.820;2022-09-25T10:52:55;6.03;;;4.10;;
8871;SDS011;4472;52.092;9.820;2022-09-25T10:55:44;6.20;;;4.10;;
8871;SDS011;4472;52.092;9.820;2022-09-25T10:58:39;7.27;;;5.60;;
8871;SDS011;4472;52.092;9.820;2022-09-25T11:01:29;6.17;;;5.67;;
8871;SDS011;4472;52.092;9.820;2022-09-25T11:04:20;5.07;;;4.50;;
8871;SDS011;4472;52.092;9.820;2022-09-25T11:07:14;6.10;;;5.60;;
8871;SDS011;4472;52.092;9.820;2022-09-25T11:10:17;7.43;;;5.57;;
8871;SDS011;4472;52.092;9.820;2022-09-25T11:13:07;7.97;;;5.00;;
8871;SDS011;4472;52.092;9.820;2022-09-25T11:16:03;7.97;;;5.23;;
8871;SDS011;4472;52.092;9.820;2022-09-25T11:19:03;5.80;;;4.63;;
8871;SDS011;4472;52.092;9.820;2022-09-25T11:21:54;8.07;;;4.80;;
8871;SDS011;4472;52.092;9.820;2022-09-25T11:24:55;6.47;;;4.77;;
8871;SDS011;4472;52.092;9.820;2022-09-25T11:28:02;5.57;;;4.40;;
8871;SDS011;4472;52.092;9.820;2022-09-25T11:30:56;5.93;;;4.13;;
8871;SDS011;4472;52.092;9.820;2022-09-25T11:33:49;6.60;;;4.10;;
8871;SDS011;4472;52.092;9.820;2022-09-25T11:36:42;5.03;;;3.60;;
8871;SDS011;4472;52.092;9.820;2022-09-25T11:39:34;4.80;;;3.30;;
8871;SDS011;4472;52.092;9.820;2022-09-25T11:42:47;3.63;;;3.30;;
8871;SDS011;4472;52.092;9.820;2022-09-25T11:45:42;5.63;;;3.43;;
8871;SDS011;4472;52.092;9.820;2022-09-25T11:48:36;4.50;;;2.90;;
8871;SDS011;4472;52.092;9.820;2022-09-25T11:51:38;5.57;;;3.07;;
8871;SDS011;4472;52.092;9.820;2022-09-25T11:54:59;4.30;;;3.00;;
8871;SDS011;4472;52.092;9.820;2022-09-25T11:58:02;5.87;;;2.77;;
8871;SDS011;4472;52.092;9.820;2022-09-25T12:01:02;4.27;;;2.70;;
8871;SDS011;4472;52.092;9.820;2022-09-25T12:03:59;4.40;;;2.90;;
8871;SDS011;4472;52.092;9.820;2022-09-25T12:07:09;4.57;;;2.43;;
8871;SDS011;4472;52.092;9.820;2022-09-25T12:13:21;4.50;;;2.90;;
8871;SDS011;4472;52.092;9.820;2022-09-25T12:16:17;4.03;;;2.57;;
8871;SDS011;4472;52.092;9.820;2022-09-25T12:19:12;3.77;;;2.40;;
8871;SDS011;4472;52.092;9.820;2022-09-25T12:22:10;3.13;;;2.20;;
8871;SDS011;4472;52.092;9.820;2022-09-25T12:25:03;2.73;;;2.10;;
8871;SDS011;4472;52.092;9.820;2022-09-25T12:28:01;2.97;;;2.10;;
8871;SDS011;4472;52.092;9.820;2022-09-25T12:30:59;2.67;;;2.03;;
8871;SDS011;4472;52.092;9.820;2022-09-25T12:33:58;3.63;;;2.07;;
8871;SDS011;4472;52.092;9.820;2022-09-25T12:36:51;3.43;;;2.00;;
8871;SDS011;4472;52.092;9.820;2022-09-25T12:39:48;3.60;;;1.73;;
8871;SDS011;4472;52.092;9.820;2022-09-25T12:42:43;1.97;;;1.80;;
8871;SDS011;4472;52.092;9.820;2022-09-25T12:45:36;1.90;;;1.80;;
8871;SDS011;4472;52.092;9.820;2022-09-25T12:48:30;3.47;;;2.00;;
8871;SDS011;4472;52.092;9.820;2022-09-25T12:51:23;2.93;;;1.97;;
8871;SDS011;4472;52.092;9.820;2022-09-25T12:54:21;3.47;;;1.80;;
8871;SDS011;4472;52.092;9.820;2022-09-25T12:57:14;3.50;;;1.90;;
8871;SDS011;4472;52.092;9.820;2022-09-25T13:00:16;2.73;;;1.90;;
8871;SDS011;4472;52.092;9.820;2022-09-25T13:03:07;4.93;;;2.50;;
8871;SDS011;4472;52.092;9.820;2022-09-25T13:06:01;2.33;;;1.90;;
8871;SDS011;4472;52.092;9.820;2022-09-25T13:08:53;4.73;;;2.10;;
8871;SDS011;4472;52.092;9.820;2022-09-25T13:11:47;2.80;;;1.90;;
8871;SDS011;4472;52.092;9.820;2022-09-25T13:14:38;2.93;;;2.00;;
8871;SDS011;4472;52.092;9.820;2022-09-25T13:17:31;3.57;;;2.00;;
8871;SDS011;4472;52.092;9.820;2022-09-25T13:23:39;4.10;;;2.20;;
8871;SDS011;4472;52.092;9.820;2022-09-25T13:26:27;2.87;;;2.10;;
8871;SDS011;4472;52.092;9.820;2022-09-25T13:29:20;2.97;;;2.10;;
8871;SDS011;4472;52.092;9.820;2022-09-25T13:32:12;2.90;;;2.20;;
8871;SDS011;4472;52.092;9.820;2022-09-25T13:35:01;2.47;;;1.90;;
8871;SDS011;4472;52.092;9.820;2022-09-25T13:37:51;3.47;;;2.00;;
8871;SDS011;4472;52.092;9.820;2022-09-25T13:40:42;2.97;;;1.80;;
8871;SDS011;4472;52.092;9.820;2022-09-25T13:43:34;1.80;;;1.60;;
8871;SDS011;4472;52.092;9.820;2022-09-25T13:46:23;3.07;;;2.00;;
8871;SDS011;4472;52.092;9.820;2022-09-25T13:52:28;2.10;;;1.73;;
8871;SDS011;4472;52.092;9.820;2022-09-25T13:55:17;2.23;;;1.80;;
8871;SDS011;4472;52.092;9.820;2022-09-25T13:58:15;2.30;;;1.73;;
8871;SDS011;4472;52.092;9.820;2022-09-25T14:01:03;2.83;;;1.50;;
8871;SDS011;4472;52.092;9.820;2022-09-25T14:04:09;2.13;;;1.70;;
8871;SDS011;4472;52.092;9.820;2022-09-25T14:07:14;3.03;;;1.90;;
8871;SDS011;4472;52.092;9.820;2022-09-25T14:10:08;3.17;;;1.70;;
8871;SDS011;4472;52.092;9.820;2022-09-25T14:12:57;3.60;;;1.60;;
8871;SDS011;4472;52.092;9.820;2022-09-25T14:15:47;3.20;;;1.70;;
8871;SDS011;4472;52.092;9.820;2022-09-25T14:18:38;3.73;;;1.43;;
8871;SDS011;4472;52.092;9.820;2022-09-25T14:21:29;1.80;;;1.50;;
8871;SDS011;4472;52.092;9.820;2022-09-25T14:24:19;4.63;;;1.60;;
8871;SDS011;4472;52.092;9.820;2022-09-25T14:27:12;3.27;;;1.40;;
8871;SDS011;4472;52.092;9.820;2022-09-25T14:30:09;4.67;;;1.50;;
8871;SDS011;4472;52.092;9.820;2022-09-25T14:33:17;3.23;;;1.47;;
8871;SDS011;4472;52.092;9.820;2022-09-25T14:36:18;2.30;;;1.30;;
8871;SDS011;4472;52.092;9.820;2022-09-25T14:39:25;2.60;;;1.60;;
8871;SDS011;4472;52.092;9.820;2022-09-25T14:45:44;1.73;;;1.40;;
8871;SDS011;4472;52.092;9.820;2022-09-25T14:48:43;2.17;;;1.60;;
8871;SDS011;4472;52.092;9.820;2022-09-25T14:51:34;2.97;;;1.83;;
8871;SDS011;4472;52.092;9.820;2022-09-25T14:54:25;2.20;;;1.30;;
8871;SDS011;4472;52.092;9.820;2022-09-25T14:57:17;3.37;;;1.40;;
8871;SDS011;4472;52.092;9.820;2022-09-25T15:00:12;2.80;;;1.70;;
8871;SDS011;4472;52.092;9.820;2022-09-25T15:03:02;2.93;;;1.63;;
8871;SDS011;4472;52.092;9.820;2022-09-25T15:05:52;2.53;;;1.63;;
8871;SDS011;4472;52.092;9.820;2022-09-25T15:08:41;2.47;;;1.80;;
8871;SDS011;4472;52.092;9.820;2022-09-25T15:11:37;3.07;;;1.50;;
8871;SDS011;4472;52.092;9.820;2022-09-25T15:14:26;3.03;;;1.40;;
8871;SDS011;4472;52.092;9.820;2022-09-25T15:17:14;1.93;;;1.60;;
8871;SDS011;4472;52.092;9.820;2022-09-25T15:20:09;1.70;;;1.60;;
8871;SDS011;4472;52.092;9.820;2022-09-25T15:23:01;2.97;;;1.77;;
8871;SDS011;4472;52.092;9.820;2022-09-25T15:25:51;2.37;;;1.50;;
8871;SDS011;4472;52.092;9.820;2022-09-25T15:28:41;9.03;;;5.20;;
8871;SDS011;4472;52.092;9.820;2022-09-25T15:31:33;4.07;;;3.17;;
8871;SDS011;4472;52.092;9.820;2022-09-25T15:34:22;7.57;;;5.23;;
8871;SDS011;4472;52.092;9.820;2022-09-25T15:37:13;4.60;;;2.50;;
8871;SDS011;4472;52.092;9.820;2022-09-25T15:40:14;3.77;;;2.00;;
8871;SDS011;4472;52.092;9.820;2022-09-25T15:43:09;3.37;;;2.07;;
8871;SDS011;4472;52.092;9.820;2022-09-25T15:46:20;5.70;;;2.77;;
8871;SDS011;4472;52.092;9.820;2022-09-25T15:49:19;6.83;;;3.63;;
8871;SDS011;4472;52.092;9.820;2022-09-25T15:52:13;4.33;;;2.90;;
8871;SDS011;4472;52.092;9.820;2022-09-25T15:55:09;3.77;;;2.40;;
8871;SDS011;4472;52.092;9.820;2022-09-25T15:58:03;13.87;;;2.00;;
8871;SDS011;4472;52.092;9.820;2022-09-25T16:00:58;3.50;;;1.90;;
8871;SDS011;4472;52.092;9.820;2022-09-25T16:04:04;8.87;;;5.33;;
8871;SDS011;4472;52.092;9.820;2022-09-25T16:07:22;6.53;;;4.57;;
8871;SDS011;4472;52.092;9.820;2022-09-25T16:10:27;2.87;;;2.50;;
8871;SDS011;4472;52.092;9.820;2022-09-25T16:13:18;3.17;;;1.70;;
8871;SDS011;4472;52.092;9.820;2022-09-25T16:16:15;4.43;;;1.77;;
8871;SDS011;4472;52.092;9.820;2022-09-25T16:19:24;3.80;;;2.00;;
8871;SDS011;4472;52.092;9.820;2022-09-25T16:22:16;2.97;;;1.70;;
8871;SDS011;4472;52.092;9.820;2022-09-25T16:25:14;5.83;;;1.73;;
8871;SDS011;4472;52.092;9.820;2022-09-25T16:28:07;3.30;;;1.80;;
8871;SDS011;4472;52.092;9.820;2022-09-25T16:31:00;3.23;;;2.30;;
8871;SDS011;4472;52.092;9.820;2022-09-25T16:33:50;6.50;;;3.23;;
8871;SDS011;4472;52.092;9.820;2022-09-25T16:36:45;5.53;;;2.00;;
8871;SDS011;4472;52.092;9.820;2022-09-25T16:39:38;4.97;;;2.20;;
8871;SDS011;4472;52.092;9.820;2022-09-25T16:42:28;4.10;;;2.17;;
8871;SDS011;4472;52.092;9.820;2022-09-25T16:45:21;2.80;;;1.97;;
8871;SDS011;4472;52.092;9.820;2022-09-25T16:48:26;4.20;;;2.10;;
8871;SDS011;4472;52.092;9.820;2022-09-25T16:51:17;2.03;;;1.70;;
8871;SDS011;4472;52.092;9.820;2022-09-25T16:54:11;3.03;;;2.00;;
8871;SDS011;4472;52.092;9.820;2022-09-25T16:57:00;5.13;;;3.50;;
8871;SDS011;4472;52.092;9.820;2022-09-25T16:59:48;4.37;;;2.70;;
8871;SDS011;4472;52.092;9.820;2022-09-25T17:02:38;4.23;;;2.87;;
8871;SDS011;4472;52.092;9.820;2022-09-25T17:05:29;4.77;;;3.10;;
8871;SDS011;4472;52.092;9.820;2022-09-25T17:08:20;4.87;;;3.63;;
8871;SDS011;4472;52.092;9.820;2022-09-25T17:11:09;7.07;;;3.57;;
8871;SDS011;4472;52.092;9.820;2022-09-25T17:13:57;4.30;;;3.20;;
8871;SDS011;4472;52.092;9.820;2022-09-25T17:16:45;6.13;;;3.03;;
8871;SDS011;4472;52.092;9.820;2022-09-25T17:19:33;4.40;;;3.10;;
8871;SDS011;4472;52.092;9.820;2022-09-25T17:22:20;5.80;;;3.20;;
8871;SDS011;4472;52.092;9.820;2022-09-25T17:25:21;7.00;;;3.73;;
8871;SDS011;4472;52.092;9.820;2022-09-25T17:28:15;6.13;;;3.23;;
8871;SDS011;4472;52.092;9.820;2022-09-25T17:31:02;5.03;;;2.70;;
8871;SDS011;4472;52.092;9.820;2022-09-25T17:33:49;4.90;;;2.80;;
8871;SDS011;4472;52.092;9.820;2022-09-25T17:36:38;10.27;;;3.47;;
8871;SDS011;4472;52.092;9.820;2022-09-25T17:39:25;4.93;;;2.90;;
8871;SDS011;4472;52.092;9.820;2022-09-25T17:42:12;8.47;;;3.70;;
8871;SDS011;4472;52.092;9.820;2022-09-25T17:45:00;5.50;;;2.60;;
8871;SDS011;4472;52.092;9.820;2022-09-25T17:47:47;6.37;;;2.80;;